ARKANSAS RIVER NAVIGATION REPORT
  LITTLE ROCK DISTRICT - U.S. ARMY CORPS OF ENGINEERS
  GENERATED: 24 JUN 2017 @ 20:35
 
  NOTE: These data are not guaranteed to be valid or correct.
        RELEASES AND FLOWS ARE IN THOUSANDS OF CFS
  _____________________________________________________________________________
 
                  23JUN     23JUN      23JUN           24JUN          24JUN
                  @1200     @2400     AVERAGE      LATEST OBSERVED    PRECIP.
                  HOURS     HOURS      FLOW         DATA AND TIME     (7A-7A)
  _____________________________________________________________________________
 
  LD13 HW-ELEV    391.55    391.54                391.75  @  19:00      0.00
  LD13 TW-ELEV    373.99    373.20                374.33  @  19:00
  LD13 RELEASE     32.0      29.5      34.9        25.0   @  19:00
 
  OZA.L&D HW-ELEV 371.20    371.46                372.36  @  19:00      1.05
  OZA.L&D TW-ELEV 342.56    339.77                340.40  @  19:00
  OZA.L&D RELEASE  44.7      27.8      40.4        34.6   @  19:00
 
  DRD.L&D HW-ELEV 338.00    337.82                337.76  @  19:00       .26
  DRD.L&D TW-ELEV 289.73    289.84                286.59  @  19:00
  DRD.L&D RELEASE  48.3      48.2      47.6        23.2   @  19:00
 
  LD09 HW-ELEV    285.26    285.66                284.69  @  19:00       .66
  LD09 TW-ELEV    269.63    269.59                267.36  @  19:00
  LD09 RELEASE     47.8      46.6      47.4        31.4   @  19:00
 
  LD08 HW-ELEV    264.92    264.83                265.27  @  19:00       .33
  LD08 TW-ELEV    255.63    255.53                252.86  @  19:00
  LD08 RELEASE     51.5      51.0      52.5        39.1   @  19:00
 
  LD07 HW-ELEV    248.74    248.63                249.26  @  19:00       .50
  LD07 TW-ELEV    231.51    231.80                231.52  @  19:00
  LD07 RELEASE     47.5      52.8      53.1        37.3   @  19:00
 
  LD06 HW-ELEV    230.81    230.80                231.04  @  19:00      1.14
  LD06 TW-ELEV    216.55    216.51                214.83  @  19:00
  LD06 RELEASE     53.6       -.1      35.8         -.1   @  19:00
 
  LD05 HW-ELEV    214.00    213.94                213.73  @  19:00       .92
  LD05 TW-ELEV    197.28    197.76                196.74  @  19:00
  LD05 RELEASE     52.9      48.8      53.3        35.3   @  19:00
 
  LD04 HW-ELEV    195.07    196.11                195.97  @  19:00       .56
  LD04 TW-ELEV    185.13    184.50                183.43  @  19:00
  LD04 RELEASE     63.1      55.8      57.2        39.5   @  19:00
 
  LD03 HW-ELEV    182.12    182.06                182.03  @  19:00       .51
  LD03 TW-ELEV    171.03    169.39                167.97  @  19:00
  LD03 RELEASE     66.2      56.3      58.9        39.6   @  19:00
 
  L02 HW-ELEV     162.74    162.51                162.44  @  19:00      2.99
 
  D02 HW-ELEV     162.77    162.82                162.84  @  19:00      2.99
  D02 TW-ELEV     136.49    136.27                135.78  @  19:00
  D02 RELEASE      63.3      60.8      69.1        50.7   @  19:00
 
  L01 TW-ELEV     136.95    137.17                137.52  @  19:00      1.54
 
  MPLD HW-ELEV    134.20    134.55                135.06  @  19:00       .61	
  MPLD TW-ELEV    133.77    134.16                134.73  @  19:00
 
  WREC DIFF.        2.75      2.62                  2.46
  CLARENDON FLOW   44.78     43.97     44.53       42.84  @  19:00
  HELENA STAGE     20.45     21.05                 21.93  @  19:00
  CAIRO STAGE      30.01     30.69                 31.36  @  19:00
  _____________________________________________________________________________